バロー の空港の天気 - METARとTAF

Barrow, Wiley Post-Will Rogers Memorial Airport ( PABR / BRW ) - アメリカ アラスカ州バロー
飛行場実況気象(Metar)
観測時間05/26 13:53 AKDT (05/26 21:53 UTC)
風向・風速北西 4m/s
視程10km以上
天気現象
全天を覆う雲 雲底高度 400m
気温0℃
湿度85%
気圧1016.6hPa
METARPABR 262153Z 32007KT 10SM OVC013 00/M02 A3002 RMK AO2 SLP166 T00001022
過去の天気等 Google飛行場航空写真 Wunderground天気予報

過去48時間のMETAR

飛行場予報(TAF)
発表時間: 5/26 09:33 AKDT (5/26 17:33 UTC)
予報対象時間: 26日10時 AKDT ~ 27日10時 AKDT
風向・風速北西 2m/s
視程10km以上
全天を覆う雲 雲底高度 370m
26日10時 AKDT ~ 26日13時 AKDT に一時的に
全天の8割程度の雲 雲底高度 210m
26日14時 AKDT から
風向・風速北北東 4m/s
視程10km以上
天気現象もや
全天を覆う雲 雲底高度 180m
PABR 261733Z 2618/2718 32004KT P6SM OVC012
TEMPO 2618/2621 BKN007
FM262200 03007KT 6SM BR OVC006